Airfield :
LOGIN :

Register | Disclaimer

   EN    FR    IT 

 










Legend :    VFR   Marginal VFR   IFR   Intensive IFR   Very Intensive IFR
Visi :
Ceiling :
>= 8 km
>= 3000ft
5 to 8 km
1000 to 3000 ft
1500m to 5 km
500 to 1000 ft
800 to 1500m
200 to 500 ft
< 800m
< 200 ft
Symbols :   Thunderstorms  Fog  Heavy snow  Heavy precipitations  Wind > 20 kt
SIGMETs :     Misc.  Thunderstorms  Icing  Turbulence  Mountain Waves  Volcanic Ashes






- Airport Elevation : 277 ft
- IATA code : JER


EGJJ - Jersey

CURRENT METAR :
  • 190920Z 09006KT 9999 BKN009 14/14 Q1014

EXPIRED METARs :
  • 190850Z 09007KT 050V110 9999 BKN010 14/13 Q1014
  • 190820Z 08005KT 040V100 9999 BKN009 14/13 Q1014
  • 190750Z 09006KT 9999 FEW009 BKN010 14/13 Q1015
  • 190650Z 09004KT 9999 FEW011 BKN012 14/13 Q1015

TAF TAF EGJJ
Valid from the 19 at 09:00 until the 19 at 18:00 UTC


190803Z 1909/1918 09009KT 9999 SCT013 BKN016
TEMPO 1909/1918 BKN010
PROB40
TEMPO 1911/1918 8000 SHRA BKN035CB
PROB30
TEMPO 1915/1918 07015G27KT 4000 +TSRAGS FEW005 SCT010 BKN020CB
ATIS : +44 1534 498 073



MET'MAP, your aeronautical weather chart ! - Copyright ORBIFLY December 2007 - Disclaimer

ORBIFLY MET'MAP TEAM :

Programming & Development : Alexandra Zaïnal
Concept & original design : Baudouin d'Aumeries
Assistance for programming : Marc-Olivier Méhu
Technical & hardware support : Manuel Goepfert

Contact : metmap@orbifly.com




SOURCES & CREDITS :

   NOAA